Time;durP1;ratioP1;P1;durP2;ratioP2;P2;SDS_P1;SDS_P2;PMS_P1;PMS_P2;Temp;Humidity;BMP_temperature;BMP_pressure;BME280_temperature;BME280_humidity;BME280_pressure;Samples;Min_cycle;Max_cycle;Signal;HPM_P1;HPM_P2
2020/12/30 00:01:29;;;;;;;45.38;27.30;;;2.80;99.90;;;;;;5057310;28;20028;-88
2020/12/30 00:03:54;;;;;;;51.97;27.85;;;2.70;99.90;;;;;;5056949;28;20101;-87
2020/12/30 00:06:21;;;;;;;50.22;28.75;;;2.60;99.90;;;;;;5044730;28;20036;-88
2020/12/30 00:08:47;;;;;;;49.60;29.65;;;2.60;99.90;;;;;;5056359;28;20045;-87
2020/12/30 00:11:13;;;;;;;51.35;29.00;;;2.60;99.90;;;;;;5056093;28;20029;-87
2020/12/30 00:13:39;;;;;;;47.35;27.98;;;2.50;99.90;;;;;;5056412;28;20500;-87
2020/12/30 00:16:05;;;;;;;52.17;29.55;;;2.50;99.90;;;;;;5055951;28;20020;-87
2020/12/30 00:18:31;;;;;;;54.00;29.85;;;2.50;99.90;;;;;;5054998;28;20067;-87
2020/12/30 00:20:56;;;;;;;52.83;30.10;;;2.40;99.90;;;;;;5054810;28;20025;-87
2020/12/30 00:23:23;;;;;;;51.47;29.77;;;2.40;99.90;;;;;;5054856;28;20028;-87
2020/12/30 00:25:49;;;;;;;52.38;30.70;;;2.30;99.90;;;;;;5052567;28;20034;-88
2020/12/30 00:28:15;;;;;;;50.13;29.63;;;2.30;99.90;;;;;;5073167;28;20103;-87
2020/12/30 00:30:40;;;;;;;53.60;30.70;;;2.30;99.90;;;;;;5073695;28;20541;-87
2020/12/30 00:33:06;;;;;;;56.95;31.98;;;2.20;99.90;;;;;;5055803;28;20024;-87
2020/12/30 00:35:31;;;;;;;55.15;32.22;;;2.20;99.90;;;;;;5056135;28;20025;-87
2020/12/30 00:37:57;;;;;;;59.25;30.10;;;2.20;99.90;;;;;;5056073;28;20495;-87
2020/12/30 00:40:22;;;;;;;52.97;28.95;;;2.20;99.90;;;;;;5074159;28;20056;-87
2020/12/30 00:42:48;;;;;;;53.35;31.40;;;2.20;99.90;;;;;;5055781;28;20452;-87
2020/12/30 00:45:13;;;;;;;58.00;31.23;;;2.10;99.90;;;;;;5055921;28;20020;-87
2020/12/30 00:47:39;;;;;;;54.28;31.88;;;2.10;99.90;;;;;;5055783;28;20084;-87
2020/12/30 00:50:06;;;;;;;53.17;31.48;;;2.00;99.90;;;;;;5055830;28;20029;-87
2020/12/30 00:52:31;;;;;;;59.45;34.00;;;2.00;99.90;;;;;;5055674;28;20127;-87
2020/12/30 00:54:57;;;;;;;58.33;33.55;;;2.00;99.90;;;;;;5055552;28;20111;-87
2020/12/30 00:57:22;;;;;;;57.35;33.20;;;1.90;99.90;;;;;;5055362;28;20028;-87
2020/12/30 00:59:48;;;;;;;59.28;32.72;;;1.90;99.90;;;;;;5055517;28;20017;-87
2020/12/30 01:02:13;;;;;;;60.78;32.72;;;1.90;99.90;;;;;;5073360;28;20070;-87
2020/12/30 01:04:39;;;;;;;58.35;31.90;;;1.90;99.90;;;;;;5055482;28;20468;-87
2020/12/30 01:07:04;;;;;;;68.63;35.80;;;1.80;99.90;;;;;;5052444;28;20041;-87
2020/12/30 01:09:30;;;;;;;64.40;33.88;;;1.80;99.90;;;;;;5052887;28;20017;-87
2020/12/30 01:12:00;;;;;;;58.42;33.03;;;1.80;99.90;;;;;;5055386;28;20024;-87
2020/12/30 01:14:26;;;;;;;62.88;34.42;;;1.80;99.90;;;;;;5073021;28;20353;-87
2020/12/30 01:16:53;;;;;;;62.67;34.17;;;1.80;99.90;;;;;;5073320;28;20028;-87
2020/12/30 01:19:22;;;;;;;63.65;34.72;;;1.80;99.90;;;;;;5055156;28;20060;-87
2020/12/30 01:21:48;;;;;;;60.53;32.33;;;1.80;99.90;;;;;;5055098;28;20062;-87
2020/12/30 01:24:14;;;;;;;68.38;32.72;;;1.70;99.90;;;;;;5055232;28;20547;-87
2020/12/30 01:26:41;;;;;;;61.42;32.22;;;1.70;99.90;;;;;;5055276;28;20020;-87
2020/12/30 01:29:07;;;;;;;65.40;34.47;;;1.70;99.90;;;;;;5054817;28;20044;-87
2020/12/30 01:31:34;;;;;;;64.45;33.97;;;1.70;99.90;;;;;;5055083;28;20016;-87
2020/12/30 01:34:00;;;;;;;60.17;32.60;;;1.70;99.90;;;;;;5054905;28;20020;-87
2020/12/30 01:36:26;;;;;;;63.08;33.80;;;1.70;99.90;;;;;;5072904;28;20024;-87
2020/12/30 01:38:53;;;;;;;55.45;31.67;;;1.70;99.90;;;;;;5054988;28;20078;-87
2020/12/30 01:41:20;;;;;;;62.85;34.20;;;1.70;99.90;;;;;;5072915;28;20093;-87
2020/12/30 01:44:03;;;;;;;66.72;35.22;;;1.70;99.90;;;;;;5054803;28;20021;-87
2020/12/30 01:46:40;;;;;;;63.85;35.15;;;1.70;99.90;;;;;;5054906;28;20017;-87
2020/12/30 01:49:12;;;;;;;62.47;33.55;;;1.80;99.90;;;;;;5054767;28;20025;-87
2020/12/30 01:51:40;;;;;;;59.92;33.47;;;1.80;99.90;;;;;;5054953;28;20054;-87
2020/12/30 01:54:05;;;;;;;64.22;33.00;;;1.90;99.90;;;;;;5072735;28;20028;-87
2020/12/30 01:56:33;;;;;;;58.15;32.67;;;1.90;99.90;;;;;;5054904;28;20385;-87
2020/12/30 01:59:01;;;;;;;50.72;28.73;;;2.00;99.90;;;;;;5054721;28;20032;-88
2020/12/30 02:01:28;;;;;;;59.88;31.08;;;2.00;99.90;;;;;;5054653;28;20023;-88
2020/12/30 02:03:56;;;;;;;56.63;31.77;;;2.10;99.90;;;;;;5054748;28;20051;-87
2020/12/30 02:06:22;;;;;;;52.80;31.05;;;2.10;99.90;;;;;;5052740;28;20078;-88
2020/12/30 02:08:48;;;;;;;55.13;30.73;;;2.10;99.90;;;;;;5072292;28;20076;-86
2020/12/30 02:11:13;;;;;;;54.42;30.65;;;2.10;99.90;;;;;;5054561;28;20377;-87
2020/12/30 02:13:39;;;;;;;54.88;29.73;;;2.10;99.90;;;;;;5054519;28;20029;-88
2020/12/30 02:16:04;;;;;;;50.10;28.25;;;2.10;99.90;;;;;;5054666;28;20082;-87
2020/12/30 02:18:30;;;;;;;45.60;26.83;;;2.10;99.90;;;;;;5054421;28;20031;-87
2020/12/30 02:20:55;;;;;;;47.75;27.88;;;2.20;99.90;;;;;;5054963;28;20019;-87
2020/12/30 02:23:21;;;;;;;56.17;30.65;;;2.20;99.90;;;;;;5072308;28;20021;-87
2020/12/30 02:25:47;;;;;;;55.70;30.73;;;2.20;99.90;;;;;;5054588;28;20476;-88
2020/12/30 02:28:12;;;;;;;47.30;28.08;;;2.20;99.90;;;;;;5072348;28;20032;-87
2020/12/30 02:30:38;;;;;;;49.25;27.98;;;2.30;99.90;;;;;;5054571;28;20013;-88
2020/12/30 02:33:08;;;;;;;50.60;28.05;;;2.30;99.90;;;;;;5054456;28;20395;-87
2020/12/30 02:35:33;;;;;;;49.42;28.23;;;2.30;99.90;;;;;;5052227;28;20031;-88
2020/12/30 02:37:59;;;;;;;43.35;26.05;;;2.30;99.90;;;;;;5072224;28;20020;-87
2020/12/30 02:40:24;;;;;;;43.75;26.80;;;2.30;99.90;;;;;;5054617;28;20039;-87
2020/12/30 02:42:51;;;;;;;49.10;25.98;;;2.40;99.90;;;;;;5054362;28;20017;-87
2020/12/30 02:45:17;;;;;;;46.85;25.27;;;2.40;99.90;;;;;;5055707;28;20017;-88
2020/12/30 02:47:43;;;;;;;46.13;27.40;;;2.40;99.90;;;;;;5074858;28;20025;-87
2020/12/30 02:50:08;;;;;;;46.40;26.50;;;2.40;99.90;;;;;;5057082;28;20027;-87
2020/12/30 02:52:34;;;;;;;46.35;27.55;;;2.40;99.90;;;;;;5056986;28;20024;-87
2020/12/30 02:54:59;;;;;;;47.50;27.75;;;2.40;99.90;;;;;;5057175;28;20074;-88
2020/12/30 02:57:25;;;;;;;45.83;29.33;;;2.40;99.90;;;;;;5057131;28;20094;-87
2020/12/30 02:59:56;;;;;;;47.00;28.48;;;2.40;99.90;;;;;;5074811;28;20016;-86
2020/12/30 03:02:23;;;;;;;49.47;28.15;;;2.40;99.90;;;;;;5057132;28;20013;-88
2020/12/30 03:04:49;;;;;;;43.80;26.40;;;2.40;99.90;;;;;;5054515;28;20092;-87
2020/12/30 03:07:14;;;;;;;50.25;27.48;;;2.40;99.90;;;;;;5074758;28;20543;-87
2020/12/30 03:09:40;;;;;;;43.83;25.48;;;2.40;99.90;;;;;;5056926;28;20033;-87
2020/12/30 03:12:05;;;;;;;49.42;26.40;;;2.40;99.90;;;;;;5057569;28;20449;-87
2020/12/30 03:14:31;;;;;;;45.60;26.73;;;2.50;99.90;;;;;;5075236;28;20043;-87
2020/12/30 03:16:56;;;;;;;47.20;27.25;;;2.50;99.90;;;;;;5057472;28;20060;-88
2020/12/30 03:19:21;;;;;;;47.33;27.35;;;2.50;99.90;;;;;;5057329;28;20467;-87
2020/12/30 03:21:47;;;;;;;43.63;25.70;;;2.60;99.90;;;;;;5057543;28;20028;-87
2020/12/30 03:24:12;;;;;;;48.85;26.88;;;2.60;99.90;;;;;;5057242;28;20447;-87
2020/12/30 03:26:38;;;;;;;41.75;24.90;;;2.60;99.90;;;;;;5057382;28;20016;-87
2020/12/30 03:29:04;;;;;;;46.33;25.92;;;2.60;99.90;;;;;;5057313;28;20059;-87
2020/12/30 03:31:30;;;;;;;44.53;26.13;;;2.60;99.90;;;;;;5057013;28;20020;-87
2020/12/30 03:33:57;;;;;;;47.97;27.02;;;2.60;99.90;;;;;;5057174;28;20032;-87
2020/12/30 03:36:23;;;;;;;46.63;28.75;;;2.60;99.90;;;;;;5056997;28;20021;-87
2020/12/30 03:38:49;;;;;;;44.33;26.30;;;2.70;99.90;;;;;;5056860;28;20032;-87
2020/12/30 03:41:15;;;;;;;49.13;27.50;;;2.70;99.90;;;;;;5057172;28;20472;-87
2020/12/30 03:43:40;;;;;;;41.15;25.17;;;2.70;99.90;;;;;;5056679;28;20021;-87
2020/12/30 03:46:06;;;;;;;52.20;28.17;;;2.70;99.90;;;;;;5056857;28;20024;-87
2020/12/30 03:48:31;;;;;;;49.95;28.10;;;2.70;99.90;;;;;;5056738;28;20123;-87
2020/12/30 03:50:57;;;;;;;47.28;27.73;;;2.70;99.90;;;;;;5074691;28;20051;-87
2020/12/30 03:53:22;;;;;;;46.35;27.50;;;2.60;99.90;;;;;;5056689;28;20119;-87
2020/12/30 03:55:48;;;;;;;50.00;28.25;;;2.60;99.90;;;;;;5056105;28;20119;-87
2020/12/30 03:58:13;;;;;;;44.55;25.92;;;2.60;99.90;;;;;;5053105;28;20028;-87
2020/12/30 04:00:39;;;;;;;51.35;28.50;;;2.60;99.90;;;;;;5056643;28;20066;-87
2020/12/30 04:03:04;;;;;;;46.95;26.20;;;2.70;99.90;;;;;;5074178;28;20376;-87
2020/12/30 04:05:30;;;;;;;47.65;27.83;;;2.70;99.90;;;;;;5054126;28;20062;-87
2020/12/30 04:07:55;;;;;;;46.33;28.33;;;2.70;99.90;;;;;;5074167;28;20060;-87
2020/12/30 04:10:21;;;;;;;46.80;26.95;;;2.70;99.90;;;;;;5056390;28;20056;-87
2020/12/30 04:12:47;;;;;;;50.30;27.45;;;2.60;99.90;;;;;;5074240;28;20488;-87
2020/12/30 04:15:12;;;;;;;46.95;27.75;;;2.60;99.90;;;;;;5056243;28;20021;-87
2020/12/30 04:17:38;;;;;;;48.53;28.67;;;2.60;99.90;;;;;;5056081;28;20533;-87
2020/12/30 04:20:03;;;;;;;49.00;29.55;;;2.60;99.90;;;;;;5056070;28;20134;-87
2020/12/30 04:22:29;;;;;;;53.05;30.20;;;2.60;99.90;;;;;;5056208;28;20027;-87
2020/12/30 04:24:54;;;;;;;49.70;28.27;;;2.60;99.90;;;;;;5056192;28;20021;-88
2020/12/30 04:27:20;;;;;;;45.80;26.35;;;2.60;99.90;;;;;;5056158;28;20503;-87
2020/12/30 04:29:45;;;;;;;51.65;28.40;;;2.50;99.90;;;;;;5055950;28;20489;-87
2020/12/30 04:32:11;;;;;;;50.08;28.17;;;2.50;99.90;;;;;;5073670;28;20040;-88
2020/12/30 04:34:36;;;;;;;45.30;26.35;;;2.50;99.90;;;;;;5055859;28;20042;-87
2020/12/30 04:37:02;;;;;;;53.08;29.77;;;2.50;99.90;;;;;;5055968;28;20090;-87
2020/12/30 04:39:27;;;;;;;47.75;27.67;;;2.60;99.90;;;;;;5055667;28;20012;-87
2020/12/30 04:41:57;;;;;;;52.72;30.40;;;2.60;99.90;;;;;;5056078;28;20021;-87
2020/12/30 04:44:24;;;;;;;51.63;31.38;;;2.60;99.90;;;;;;5073617;28;20133;-87
2020/12/30 04:46:54;;;;;;;50.40;27.33;;;2.60;99.90;;;;;;5055748;28;20025;-87
2020/12/30 04:49:20;;;;;;;50.75;27.98;;;2.60;99.90;;;;;;5055593;28;20491;-87
2020/12/30 04:51:45;;;;;;;45.20;26.80;;;2.60;99.90;;;;;;5055508;28;20028;-87
2020/12/30 04:54:13;;;;;;;49.90;30.33;;;2.50;99.90;;;;;;5055444;28;20419;-87
2020/12/30 04:57:01;;;;;;;47.55;28.55;;;2.60;99.90;;;;;;5055631;28;20418;-87
2020/12/30 04:59:42;;;;;;;50.55;26.33;;;2.50;99.90;;;;;;5054385;28;20059;-87
2020/12/30 05:02:12;;;;;;;50.75;29.92;;;2.60;99.90;;;;;;5066864;28;20017;-87
2020/12/30 05:04:39;;;;;;;48.65;29.08;;;2.60;99.90;;;;;;5048548;28;20021;-87
2020/12/30 05:07:10;;;;;;;50.92;30.00;;;2.60;99.90;;;;;;5052254;28;20049;-87
2020/12/30 05:09:38;;;;;;;54.10;30.40;;;2.60;99.90;;;;;;5052250;28;20025;-87
2020/12/30 05:12:17;;;;;;;53.55;30.95;;;2.60;99.90;;;;;;5052148;28;20124;-87
2020/12/30 05:14:43;;;;;;;51.58;31.10;;;2.60;99.90;;;;;;5051403;28;20024;-87
2020/12/30 05:17:10;;;;;;;50.67;30.98;;;2.60;99.90;;;;;;5035260;28;20025;-87
2020/12/30 05:19:36;;;;;;;50.30;30.42;;;2.60;99.90;;;;;;5039895;28;20525;-87
2020/12/30 05:22:03;;;;;;;47.53;27.52;;;2.70;99.90;;;;;;5063196;28;20063;-87
2020/12/30 05:24:28;;;;;;;44.67;26.70;;;2.70;99.90;;;;;;5063377;28;20017;-87
2020/12/30 05:26:55;;;;;;;51.28;30.02;;;2.70;99.90;;;;;;5047734;28;20028;-87
2020/12/30 05:29:24;;;;;;;50.78;32.20;;;2.80;99.90;;;;;;5062381;28;20024;-87
2020/12/30 05:31:50;;;;;;;50.38;30.98;;;2.80;99.90;;;;;;5043064;28;20031;-87
2020/12/30 05:34:18;;;;;;;44.63;27.42;;;2.80;99.90;;;;;;5041286;28;20496;-87
2020/12/30 05:36:48;;;;;;;51.80;30.58;;;2.80;99.90;;;;;;5045752;28;20035;-87
2020/12/30 05:39:34;;;;;;;48.92;29.73;;;2.90;99.90;;;;;;5061784;28;20025;-87
2020/12/30 05:42:15;;;;;;;47.35;28.83;;;2.90;99.90;;;;;;5040933;28;20480;-87
2020/12/30 05:44:42;;;;;;;45.83;28.63;;;2.90;99.90;;;;;;5045356;28;20028;-87
2020/12/30 05:47:12;;;;;;;43.60;28.33;;;2.90;99.90;;;;;;5051211;28;20028;-87
2020/12/30 05:49:37;;;;;;;48.50;28.50;;;2.90;99.90;;;;;;5040922;28;20037;-87
2020/12/30 05:52:14;;;;;;;44.00;28.92;;;3.00;99.90;;;;;;5047257;28;20025;-87
2020/12/30 05:54:45;;;;;;;46.38;28.85;;;3.00;99.90;;;;;;5048740;28;20021;-86
2020/12/30 05:57:24;;;;;;;42.33;27.35;;;3.00;99.90;;;;;;5065549;28;20020;-86
2020/12/30 05:59:51;;;;;;;44.60;27.60;;;3.00;99.90;;;;;;5063096;28;20048;-87
2020/12/30 06:02:25;;;;;;;50.83;28.65;;;3.00;99.90;;;;;;5048189;28;20439;-87
2020/12/30 06:04:52;;;;;;;44.75;27.35;;;3.00;99.90;;;;;;5047762;28;20029;-87
2020/12/30 06:07:19;;;;;;;48.63;28.38;;;3.10;99.90;;;;;;5043266;28;20066;-87
2020/12/30 06:09:52;;;;;;;44.65;26.83;;;3.10;99.90;;;;;;5045960;28;20065;-87
2020/12/30 06:12:24;;;;;;;44.65;26.67;;;3.10;99.90;;;;;;5053976;28;20025;-87
2020/12/30 06:14:50;;;;;;;45.28;27.50;;;3.10;99.90;;;;;;5069063;28;20107;-86
2020/12/30 06:17:25;;;;;;;42.58;25.92;;;3.10;99.90;;;;;;5061327;28;20027;-87
2020/12/30 06:19:53;;;;;;;44.67;25.23;;;3.10;99.90;;;;;;5049004;28;20369;-87
2020/12/30 06:22:24;;;;;;;38.90;25.08;;;3.10;99.90;;;;;;5052808;28;20028;-87
2020/12/30 06:24:54;;;;;;;39.58;25.63;;;3.10;99.90;;;;;;5057860;28;20107;-87
2020/12/30 06:27:22;;;;;;;38.42;24.65;;;3.20;99.90;;;;;;5045475;28;20103;-87
2020/12/30 06:29:50;;;;;;;37.58;24.23;;;3.10;99.90;;;;;;5051981;28;20075;-87
2020/12/30 06:32:33;;;;;;;40.38;24.83;;;3.20;99.90;;;;;;5051982;28;20051;-87
2020/12/30 06:35:00;;;;;;;43.08;26.27;;;3.20;99.90;;;;;;5054205;28;20539;-87
2020/12/30 06:37:31;;;;;;;39.65;24.05;;;3.20;99.90;;;;;;5059824;28;20499;-87
2020/12/30 06:40:16;;;;;;;42.67;23.55;;;3.20;99.90;;;;;;5043851;28;20389;-87
2020/12/30 06:42:43;;;;;;;36.47;23.50;;;3.20;99.90;;;;;;5046211;28;20032;-87
2020/12/30 06:45:11;;;;;;;40.92;25.55;;;3.20;99.90;;;;;;5068914;28;20047;-86
2020/12/30 06:48:02;;;;;;;36.47;24.27;;;3.20;99.90;;;;;;5051909;28;20031;-87
2020/12/30 06:50:28;;;;;;;38.78;23.90;;;3.20;99.90;;;;;;5063666;28;20032;-86
2020/12/30 06:52:54;;;;;;;38.08;23.23;;;3.20;99.90;;;;;;5054895;28;20395;-87
2020/12/30 06:55:43;;;;;;;45.63;26.55;;;3.20;99.90;;;;;;5042717;28;20021;-87
2020/12/30 06:58:08;;;;;;;38.05;23.65;;;3.20;99.90;;;;;;5052782;28;20027;-87
2020/12/30 07:00:38;;;;;;;40.45;24.20;;;3.20;99.90;;;;;;5048854;28;20111;-86
2020/12/30 07:03:10;;;;;;;36.72;23.27;;;3.20;99.90;;;;;;5062119;28;20112;-87
2020/12/30 07:05:36;;;;;;;38.72;24.42;;;3.20;99.90;;;;;;5064676;28;20013;-87
2020/12/30 07:08:01;;;;;;;43.80;26.20;;;3.20;99.90;;;;;;5052954;28;20044;-87
2020/12/30 07:10:27;;;;;;;40.65;24.75;;;3.20;99.90;;;;;;5047399;28;20048;-89
2020/12/30 07:12:52;;;;;;;39.95;23.27;;;3.20;99.90;;;;;;5054181;28;20028;-87
2020/12/30 07:15:26;;;;;;;39.13;24.25;;;3.20;99.90;;;;;;5057320;28;20074;-87
2020/12/30 07:17:54;;;;;;;37.22;23.73;;;3.10;99.90;;;;;;5056028;28;20032;-87
2020/12/30 07:20:24;;;;;;;35.67;24.08;;;3.20;99.90;;;;;;5075357;28;20047;-88
2020/12/30 07:22:49;;;;;;;36.10;22.23;;;3.20;99.90;;;;;;5057378;28;20115;-87
2020/12/30 07:25:16;;;;;;;41.92;25.13;;;3.20;99.90;;;;;;5057973;28;20111;-86
2020/12/30 07:27:42;;;;;;;38.80;24.00;;;3.20;99.90;;;;;;5075997;28;20021;-87
2020/12/30 07:30:07;;;;;;;35.00;22.77;;;3.20;99.90;;;;;;5076083;28;20445;-88
2020/12/30 07:32:33;;;;;;;41.92;25.10;;;3.20;99.90;;;;;;5055414;28;20059;-87
2020/12/30 07:35:00;;;;;;;36.28;23.20;;;3.10;99.90;;;;;;5057293;28;20020;-87
2020/12/30 07:37:26;;;;;;;43.10;25.05;;;3.20;99.90;;;;;;5059137;28;20506;-87
2020/12/30 07:39:51;;;;;;;42.05;23.88;;;3.20;99.90;;;;;;5060716;28;20024;-89
2020/12/30 07:42:19;;;;;;;41.00;24.88;;;3.10;99.90;;;;;;5057553;28;20021;-88
2020/12/30 07:44:47;;;;;;;42.97;24.77;;;3.10;99.90;;;;;;5077509;28;20021;-89
2020/12/30 07:47:13;;;;;;;37.22;25.02;;;3.10;99.90;;;;;;5058077;28;20028;-88
2020/12/30 07:49:39;;;;;;;40.30;25.42;;;3.10;99.90;;;;;;5058220;28;20115;-90
2020/12/30 07:52:05;;;;;;;40.25;25.83;;;3.10;99.90;;;;;;5058731;28;20109;-92
2020/12/30 07:54:32;;;;;;;43.50;26.88;;;3.10;99.90;;;;;;5058492;28;20047;-92
2020/12/30 07:57:04;;;;;;;43.83;27.70;;;3.10;99.90;;;;;;5058412;28;20021;-92
2020/12/30 07:59:31;;;;;;;51.47;31.08;;;3.10;99.90;;;;;;5058056;28;20028;-91
2020/12/30 08:02:00;;;;;;;44.28;27.92;;;3.10;99.90;;;;;;5057797;28;20538;-91
2020/12/30 08:04:27;;;;;;;45.33;28.67;;;3.10;99.90;;;;;;5057898;28;20021;-91
2020/12/30 08:06:53;;;;;;;45.50;28.73;;;3.20;99.90;;;;;;5046416;28;20078;-90
2020/12/30 08:09:19;;;;;;;52.25;30.77;;;3.20;99.90;;;;;;5057722;28;20029;-90
2020/12/30 08:11:59;;;;;;;46.38;28.52;;;3.20;99.90;;;;;;5057366;28;20442;-90
2020/12/30 08:14:27;;;;;;;45.90;28.33;;;3.20;99.90;;;;;;5071621;28;20052;-91
2020/12/30 08:16:53;;;;;;;49.25;29.90;;;3.20;99.90;;;;;;5056627;28;20028;-90
2020/12/30 08:19:34;;;;;;;49.15;30.10;;;3.30;99.90;;;;;;5056568;28;20051;-89
2020/12/30 08:22:02;;;;;;;51.30;29.67;;;3.30;99.90;;;;;;5057250;28;20093;-90
2020/12/30 08:24:32;;;;;;;46.17;28.42;;;3.30;99.90;;;;;;5057423;28;20094;-89
2020/12/30 08:26:58;;;;;;;49.65;28.77;;;3.30;99.90;;;;;;5057386;28;20025;-89
2020/12/30 08:29:28;;;;;;;50.08;29.67;;;3.30;99.90;;;;;;5057245;28;20629;-88
2020/12/30 08:32:00;;;;;;;51.55;30.13;;;3.30;99.90;;;;;;5056677;28;20033;-87
2020/12/30 08:34:31;;;;;;;48.42;30.58;;;3.30;99.90;;;;;;5055851;28;20051;-87
2020/12/30 08:37:08;;;;;;;50.92;29.58;;;3.30;99.90;;;;;;5056092;28;20051;-87
2020/12/30 08:39:40;;;;;;;51.75;29.55;;;3.30;99.90;;;;;;5056282;28;20025;-88
2020/12/30 08:42:23;;;;;;;50.47;30.25;;;3.30;99.90;;;;;;5054255;28;20020;-88
2020/12/30 08:44:59;;;;;;;53.35;31.05;;;3.30;99.90;;;;;;5069344;28;20039;-88
2020/12/30 08:47:25;;;;;;;47.97;29.80;;;3.40;99.90;;;;;;5035030;28;20024;-88
2020/12/30 08:49:52;;;;;;;46.33;30.45;;;3.40;99.90;;;;;;5036486;28;20066;-87
2020/12/30 08:52:20;;;;;;;48.22;29.90;;;3.40;99.90;;;;;;5036033;28;20028;-87
2020/12/30 08:54:45;;;;;;;48.92;30.27;;;3.40;99.90;;;;;;5036107;28;20021;-87
2020/12/30 08:57:11;;;;;;;52.17;31.52;;;3.40;99.90;;;;;;5035972;28;20025;-87
2020/12/30 08:59:36;;;;;;;51.72;29.70;;;3.40;99.90;;;;;;5053849;28;20040;-87
2020/12/30 09:02:12;;;;;;;48.42;29.95;;;3.30;99.90;;;;;;5035890;28;20017;-87
2020/12/30 09:04:54;;;;;;;48.38;31.52;;;3.40;99.90;;;;;;5053739;28;20029;-87
2020/12/30 09:07:28;;;;;;;54.20;30.67;;;3.30;99.90;;;;;;5035280;28;20128;-87
2020/12/30 09:10:21;;;;;;;50.58;30.65;;;3.40;99.90;;;;;;5035618;28;20040;-87
2020/12/30 09:12:49;;;;;;;50.65;29.02;;;3.30;99.90;;;;;;5031195;28;20032;-87
2020/12/30 09:15:15;;;;;;;51.17;31.38;;;3.30;99.90;;;;;;5035522;28;20032;-87
2020/12/30 09:17:41;;;;;;;51.22;29.55;;;3.30;99.90;;;;;;5035310;28;20029;-87
2020/12/30 09:20:15;;;;;;;50.75;29.35;;;3.40;99.90;;;;;;5053365;28;20028;-87
2020/12/30 09:22:42;;;;;;;49.60;28.95;;;3.40;99.90;;;;;;5035633;28;20028;-87
2020/12/30 09:25:23;;;;;;;47.35;28.45;;;3.40;99.90;;;;;;5035390;28;20021;-87
2020/12/30 09:27:49;;;;;;;48.15;27.85;;;3.50;99.90;;;;;;5053121;28;20044;-87
2020/12/30 09:30:17;;;;;;;49.85;28.50;;;3.50;99.90;;;;;;5035639;28;20028;-87
2020/12/30 09:32:43;;;;;;;48.80;28.60;;;3.50;99.90;;;;;;5035380;28;20090;-87
2020/12/30 09:35:16;;;;;;;46.15;28.17;;;3.50;99.90;;;;;;5041149;28;20030;-86
2020/12/30 09:37:51;;;;;;;47.50;27.95;;;3.50;99.90;;;;;;5061098;28;20029;-87
2020/12/30 09:40:17;;;;;;;46.17;29.20;;;3.60;99.90;;;;;;5041976;28;20131;-88
2020/12/30 09:42:43;;;;;;;47.85;28.67;;;3.50;99.90;;;;;;5044103;28;20040;-89
2020/12/30 09:45:14;;;;;;;53.40;31.20;;;3.60;99.90;;;;;;5055526;28;20028;-87
2020/12/30 09:47:40;;;;;;;52.42;31.27;;;3.60;99.90;;;;;;5071477;28;20107;-88
2020/12/30 09:50:09;;;;;;;47.60;29.83;;;3.60;99.90;;;;;;5042063;28;20075;-88
2020/12/30 09:52:42;;;;;;;49.30;28.65;;;3.60;99.90;;;;;;5043870;28;20029;-88
2020/12/30 09:55:09;;;;;;;50.55;28.58;;;3.60;99.90;;;;;;5045301;28;20024;-86
2020/12/30 09:57:35;;;;;;;47.20;28.38;;;3.60;99.90;;;;;;5048991;28;20059;-87
2020/12/30 10:00:03;;;;;;;47.80;28.08;;;3.70;99.90;;;;;;5057028;28;20024;-87
2020/12/30 10:02:28;;;;;;;49.13;29.30;;;3.70;99.90;;;;;;5047246;28;20056;-88
2020/12/30 10:04:54;;;;;;;48.35;28.33;;;3.70;99.90;;;;;;5061002;28;20067;-87
2020/12/30 10:07:19;;;;;;;47.00;28.15;;;3.80;99.90;;;;;;5038593;28;20037;-87
2020/12/30 10:09:45;;;;;;;46.80;28.40;;;3.80;99.90;;;;;;5046559;28;20024;-88
2020/12/30 10:12:10;;;;;;;45.58;27.48;;;3.80;99.90;;;;;;5045711;28;20035;-88
2020/12/30 10:14:36;;;;;;;45.80;28.95;;;3.90;99.90;;;;;;5046134;28;20025;-87
2020/12/30 10:17:02;;;;;;;49.83;28.90;;;4.00;99.90;;;;;;5055452;28;20021;-87
2020/12/30 10:19:27;;;;;;;49.35;29.33;;;4.00;99.90;;;;;;5051599;28;20028;-87
2020/12/30 10:21:53;;;;;;;44.17;28.65;;;4.00;99.90;;;;;;5067162;28;20029;-88
2020/12/30 10:24:18;;;;;;;44.17;28.65;;;4.00;99.90;;;;;;5064319;28;20017;-88
2020/12/30 10:26:44;;;;;;;43.55;27.90;;;4.10;99.90;;;;;;5045634;28;20025;-87
2020/12/30 10:29:10;;;;;;;45.35;28.35;;;4.00;99.90;;;;;;5049725;28;20062;-87
2020/12/30 10:31:35;;;;;;;50.75;30.13;;;4.00;99.90;;;;;;5060276;28;20029;-87
2020/12/30 10:34:01;;;;;;;43.60;28.27;;;4.10;99.90;;;;;;5062385;28;20480;-87
2020/12/30 10:36:30;;;;;;;49.65;29.60;;;4.10;99.90;;;;;;5051554;28;20017;-88
2020/12/30 10:38:57;;;;;;;45.13;29.73;;;4.10;99.90;;;;;;5049029;28;20032;-88
2020/12/30 10:41:22;;;;;;;45.85;29.00;;;4.20;99.90;;;;;;5038120;28;20282;-88
2020/12/30 10:43:48;;;;;;;48.70;31.08;;;4.20;99.90;;;;;;5045598;28;20025;-88
2020/12/30 10:46:15;;;;;;;47.33;30.10;;;4.20;99.90;;;;;;5064168;28;20107;-89
2020/12/30 10:48:45;;;;;;;49.97;29.83;;;4.20;99.90;;;;;;5076455;28;20031;-89
2020/12/30 10:51:11;;;;;;;47.80;30.25;;;4.20;99.90;;;;;;5046888;28;20028;-88
2020/12/30 10:53:37;;;;;;;49.17;29.60;;;4.20;99.90;;;;;;5058378;28;20609;-86
2020/12/30 10:56:03;;;;;;;47.80;30.75;;;4.30;99.90;;;;;;5051998;28;20040;-88
2020/12/30 10:58:29;;;;;;;40.00;28.48;;;4.30;99.90;;;;;;5052206;28;20119;-87
2020/12/30 11:00:55;;;;;;;39.30;27.25;;;4.40;99.90;;;;;;5065921;28;20031;-88
2020/12/30 11:03:21;;;;;;;42.38;27.88;;;4.60;99.90;;;;;;5049322;28;20017;-87
2020/12/30 11:05:46;;;;;;;41.13;26.98;;;4.60;99.90;;;;;;5046261;28;20025;-87
2020/12/30 11:08:12;;;;;;;39.05;25.90;;;4.70;99.90;;;;;;5065824;28;20040;-87
2020/12/30 11:10:37;;;;;;;35.80;26.05;;;5.00;99.90;;;;;;5059885;28;20021;-87
2020/12/30 11:13:03;;;;;;;38.17;24.80;;;5.20;99.90;;;;;;5051933;28;20028;-88
2020/12/30 11:15:28;;;;;;;45.28;24.60;;;5.10;99.90;;;;;;5048601;28;20037;-87
2020/12/30 11:17:54;;;;;;;34.25;22.65;;;5.00;99.90;;;;;;5051317;28;20027;-89
2020/12/30 11:20:19;;;;;;;33.63;22.98;;;5.00;99.90;;;;;;5043017;28;20593;-87
2020/12/30 11:22:45;;;;;;;35.60;23.25;;;4.90;99.90;;;;;;5039723;28;20108;-87
2020/12/30 11:25:10;;;;;;;37.30;23.13;;;4.90;99.90;;;;;;5046378;28;20094;-87
2020/12/30 11:27:36;;;;;;;32.60;21.00;;;4.80;99.90;;;;;;5070688;28;20024;-88
2020/12/30 11:30:02;;;;;;;32.95;21.13;;;4.80;99.90;;;;;;5056955;28;20111;-88
2020/12/30 11:32:27;;;;;;;31.00;20.55;;;4.90;99.90;;;;;;5055744;28;20024;-90
2020/12/30 11:34:53;;;;;;;33.78;20.55;;;4.90;99.90;;;;;;5057932;28;20028;-91
2020/12/30 11:37:18;;;;;;;32.10;19.85;;;5.00;99.90;;;;;;5075410;28;20051;-90
2020/12/30 11:39:44;;;;;;;30.58;20.08;;;5.00;99.90;;;;;;5057842;28;20032;-91
2020/12/30 11:42:09;;;;;;;27.73;18.42;;;5.00;99.90;;;;;;5043848;28;20071;-91
2020/12/30 11:44:35;;;;;;;27.58;18.67;;;5.10;99.90;;;;;;5057334;28;20017;-90
2020/12/30 11:47:01;;;;;;;24.38;17.92;;;5.10;99.90;;;;;;5057929;28;20024;-88
2020/12/30 11:49:27;;;;;;;26.83;19.60;;;5.00;99.90;;;;;;5057545;28;20123;-89
2020/12/30 11:51:53;;;;;;;30.52;20.40;;;5.00;99.90;;;;;;5075579;28;20021;-90
2020/12/30 11:54:19;;;;;;;30.75;19.65;;;5.10;99.90;;;;;;5056973;28;20393;-92
2020/12/30 11:56:44;;;;;;;27.45;19.20;;;5.10;99.90;;;;;;5057589;28;20054;-89
2020/12/30 11:59:10;;;;;;;28.02;19.63;;;5.20;99.90;;;;;;5056454;28;20029;-88
2020/12/30 12:01:36;;;;;;;28.55;19.52;;;5.20;99.90;;;;;;5057088;28;20028;-88
2020/12/30 12:04:03;;;;;;;29.42;19.42;;;5.20;99.90;;;;;;5057189;28;20031;-88
2020/12/30 12:06:29;;;;;;;29.73;19.45;;;5.20;99.90;;;;;;5044175;28;20013;-90
2020/12/30 12:08:54;;;;;;;33.67;21.13;;;5.20;99.90;;;;;;5056535;28;20083;-87
2020/12/30 12:11:20;;;;;;;30.65;21.10;;;5.30;99.90;;;;;;5057224;28;20032;-91
2020/12/30 12:13:46;;;;;;;28.90;20.58;;;5.30;99.90;;;;;;5047218;28;20473;-89
2020/12/30 12:16:12;;;;;;;31.38;20.30;;;5.50;99.90;;;;;;5044931;28;20031;-89
2020/12/30 12:18:38;;;;;;;30.40;21.58;;;5.50;99.90;;;;;;5043007;28;20112;-89
2020/12/30 12:21:04;;;;;;;28.33;20.40;;;5.60;99.90;;;;;;5056625;28;20396;-88
2020/12/30 12:23:30;;;;;;;30.73;19.20;;;5.70;99.90;;;;;;5060305;28;20100;-88
2020/12/30 12:25:56;;;;;;;28.73;20.58;;;5.80;99.90;;;;;;5058356;28;20021;-88
2020/12/30 12:28:44;;;;;;;30.92;20.35;;;6.00;99.90;;;;;;5058383;28;20438;-88
2020/12/30 12:31:17;;;;;;;30.48;19.83;;;6.00;99.90;;;;;;5056800;28;20021;-88
2020/12/30 12:33:43;;;;;;;30.85;19.75;;;6.00;99.90;;;;;;5072667;28;20037;-88
2020/12/30 12:36:15;;;;;;;30.98;21.17;;;6.00;99.90;;;;;;5055028;28;20022;-89
2020/12/30 12:38:42;;;;;;;31.58;20.63;;;6.00;99.90;;;;;;5053456;28;20112;-89